sensor_id;sensor_type;location;lat;lon;timestamp;pressure;altitude;pressure_sealevel;temperature;humidity
63663;BME280;49815;51.618;0.336;2022-12-13T00:01:34;100241.40;;;-2.02;49.78
63663;BME280;49815;51.618;0.336;2022-12-13T00:04:02;100242.54;;;-1.88;49.63
63663;BME280;49815;51.618;0.336;2022-12-13T00:06:26;100243.66;;;-1.57;49.58
63663;BME280;49815;51.618;0.336;2022-12-13T00:08:51;100244.17;;;-1.62;49.47
63663;BME280;49815;51.618;0.336;2022-12-13T00:11:17;100243.73;;;-1.88;48.73
63663;BME280;49815;51.618;0.336;2022-12-13T00:13:42;100243.69;;;-1.68;49.08
63663;BME280;49815;51.618;0.336;2022-12-13T00:16:11;100244.81;;;-1.87;49.37
63663;BME280;49815;51.618;0.336;2022-12-13T00:18:33;100244.88;;;-2.12;48.94
63663;BME280;49815;51.618;0.336;2022-12-13T00:21:00;100241.25;;;-2.43;49.43
63663;BME280;49815;51.618;0.336;2022-12-13T00:23:22;100239.94;;;-2.03;48.80
63663;BME280;49815;51.618;0.336;2022-12-13T00:25:47;100242.64;;;-2.34;49.12
63663;BME280;49815;51.618;0.336;2022-12-13T00:28:13;100236.61;;;-1.92;49.25
63663;BME280;49815;51.618;0.336;2022-12-13T00:30:39;100238.92;;;-2.25;49.27
63663;BME280;49815;51.618;0.336;2022-12-13T00:33:04;100237.49;;;-2.56;48.35
63663;BME280;49815;51.618;0.336;2022-12-13T00:35:29;100237.51;;;-2.55;49.37
63663;BME280;49815;51.618;0.336;2022-12-13T00:37:56;100235.92;;;-2.33;49.01
63663;BME280;49815;51.618;0.336;2022-12-13T00:40:21;100240.59;;;-2.50;48.92
63663;BME280;49815;51.618;0.336;2022-12-13T00:42:45;100239.34;;;-2.95;48.71
63663;BME280;49815;51.618;0.336;2022-12-13T00:45:13;100239.74;;;-2.54;49.00
63663;BME280;49815;51.618;0.336;2022-12-13T00:47:37;100239.14;;;-2.50;49.14
63663;BME280;49815;51.618;0.336;2022-12-13T00:50:03;100239.22;;;-2.76;49.43
63663;BME280;49815;51.618;0.336;2022-12-13T00:52:30;100235.38;;;-2.63;49.24
63663;BME280;49815;51.618;0.336;2022-12-13T00:54:54;100232.03;;;-2.70;48.74
63663;BME280;49815;51.618;0.336;2022-12-13T00:57:20;100229.52;;;-2.52;48.34
63663;BME280;49815;51.618;0.336;2022-12-13T00:59:44;100226.66;;;-3.31;46.74
63663;BME280;49815;51.618;0.336;2022-12-13T01:02:10;100223.86;;;-3.09;49.22
63663;BME280;49815;51.618;0.336;2022-12-13T01:04:35;100220.89;;;-2.77;49.88
63663;BME280;49815;51.618;0.336;2022-12-13T01:07:00;100216.51;;;-2.78;49.28
63663;BME280;49815;51.618;0.336;2022-12-13T01:09:26;100214.89;;;-2.44;49.31
63663;BME280;49815;51.618;0.336;2022-12-13T01:11:54;100216.70;;;-3.05;49.48
63663;BME280;49815;51.618;0.336;2022-12-13T01:14:18;100214.92;;;-2.77;49.76
63663;BME280;49815;51.618;0.336;2022-12-13T01:16:43;100213.71;;;-2.52;48.56
63663;BME280;49815;51.618;0.336;2022-12-13T01:19:08;100208.01;;;-2.50;49.18
63663;BME280;49815;51.618;0.336;2022-12-13T01:21:34;100207.89;;;-2.90;47.96
63663;BME280;49815;51.618;0.336;2022-12-13T01:24:04;100206.63;;;-3.06;47.97
63663;BME280;49815;51.618;0.336;2022-12-13T01:26:23;100202.65;;;-2.90;48.63
63663;BME280;49815;51.618;0.336;2022-12-13T01:28:50;100203.63;;;-2.72;48.91
63663;BME280;49815;51.618;0.336;2022-12-13T01:31:17;100201.89;;;-3.18;48.99
63663;BME280;49815;51.618;0.336;2022-12-13T01:33:40;100198.67;;;-2.91;48.15
63663;BME280;49815;51.618;0.336;2022-12-13T01:36:08;100194.57;;;-2.96;48.35
63663;BME280;49815;51.618;0.336;2022-12-13T01:38:31;100198.90;;;-3.16;49.98
63663;BME280;49815;51.618;0.336;2022-12-13T01:40:57;100198.60;;;-3.01;49.50
63663;BME280;49815;51.618;0.336;2022-12-13T01:43:22;100198.60;;;-2.85;50.18
63663;BME280;49815;51.618;0.336;2022-12-13T01:45:47;100201.03;;;-2.87;49.79
63663;BME280;49815;51.618;0.336;2022-12-13T01:48:15;100201.58;;;-2.95;49.06
63663;BME280;49815;51.618;0.336;2022-12-13T01:50:40;100201.76;;;-2.59;49.18
63663;BME280;49815;51.618;0.336;2022-12-13T01:53:03;100205.05;;;-2.71;49.06
63663;BME280;49815;51.618;0.336;2022-12-13T01:55:31;100207.05;;;-2.41;48.96
63663;BME280;49815;51.618;0.336;2022-12-13T01:57:57;100208.30;;;-2.68;48.59
63663;BME280;49815;51.618;0.336;2022-12-13T02:00:21;100212.64;;;-3.33;49.80
63663;BME280;49815;51.618;0.336;2022-12-13T02:02:46;100210.93;;;-3.32;49.71
63663;BME280;49815;51.618;0.336;2022-12-13T02:05:12;100213.17;;;-3.14;50.43
63663;BME280;49815;51.618;0.336;2022-12-13T02:07:37;100215.01;;;-2.82;49.60
63663;BME280;49815;51.618;0.336;2022-12-13T02:10:04;100217.15;;;-2.85;49.13
63663;BME280;49815;51.618;0.336;2022-12-13T02:12:28;100212.55;;;-2.78;49.09
63663;BME280;49815;51.618;0.336;2022-12-13T02:14:52;100212.61;;;-2.87;48.67
63663;BME280;49815;51.618;0.336;2022-12-13T02:17:22;100216.22;;;-3.05;50.13
63663;BME280;49815;51.618;0.336;2022-12-13T02:22:19;100213.27;;;-3.09;48.78
63663;BME280;49815;51.618;0.336;2022-12-13T02:24:50;100215.75;;;-3.22;48.63
63663;BME280;49815;51.618;0.336;2022-12-13T02:27:06;100211.46;;;-3.43;48.47
63663;BME280;49815;51.618;0.336;2022-12-13T02:29:41;100213.59;;;-2.95;47.50
63663;BME280;49815;51.618;0.336;2022-12-13T02:31:53;100218.60;;;-3.36;49.67
63663;BME280;49815;51.618;0.336;2022-12-13T02:34:19;100220.10;;;-3.12;49.04
63663;BME280;49815;51.618;0.336;2022-12-13T02:36:49;100218.01;;;-3.32;47.82
63663;BME280;49815;51.618;0.336;2022-12-13T02:39:13;100214.54;;;-3.32;48.02
63663;BME280;49815;51.618;0.336;2022-12-13T02:41:38;100213.02;;;-3.34;47.41
63663;BME280;49815;51.618;0.336;2022-12-13T02:44:03;100215.25;;;-3.09;48.42
63663;BME280;49815;51.618;0.336;2022-12-13T02:46:28;100214.82;;;-3.25;47.92
63663;BME280;49815;51.618;0.336;2022-12-13T02:48:51;100217.05;;;-3.51;47.73
63663;BME280;49815;51.618;0.336;2022-12-13T02:51:16;100217.89;;;-3.38;47.33
63663;BME280;49815;51.618;0.336;2022-12-13T02:53:41;100217.36;;;-3.06;47.65
63663;BME280;49815;51.618;0.336;2022-12-13T02:56:06;100215.65;;;-2.78;47.15
63663;BME280;49815;51.618;0.336;2022-12-13T02:58:34;100211.62;;;-3.20;47.31
63663;BME280;49815;51.618;0.336;2022-12-13T03:01:06;100209.49;;;-3.14;47.16
63663;BME280;49815;51.618;0.336;2022-12-13T03:03:32;100208.67;;;-3.46;46.71
63663;BME280;49815;51.618;0.336;2022-12-13T03:05:54;100206.98;;;-3.19;47.32
63663;BME280;49815;51.618;0.336;2022-12-13T03:08:21;100207.74;;;-2.78;47.20
63663;BME280;49815;51.618;0.336;2022-12-13T03:10:46;100207.99;;;-2.76;47.12
63663;BME280;49815;51.618;0.336;2022-12-13T03:13:10;100212.20;;;-3.33;46.67
63663;BME280;49815;51.618;0.336;2022-12-13T03:15:34;100214.90;;;-3.70;48.17
63663;BME280;49815;51.618;0.336;2022-12-13T03:17:58;100210.43;;;-3.85;47.85
63663;BME280;49815;51.618;0.336;2022-12-13T03:20:24;100211.73;;;-3.38;48.18
63663;BME280;49815;51.618;0.336;2022-12-13T03:22:46;100211.06;;;-3.53;47.80
63663;BME280;49815;51.618;0.336;2022-12-13T03:25:13;100213.33;;;-3.44;47.63
63663;BME280;49815;51.618;0.336;2022-12-13T03:27:36;100211.58;;;-3.34;47.94
63663;BME280;49815;51.618;0.336;2022-12-13T03:30:04;100212.48;;;-3.53;47.02
63663;BME280;49815;51.618;0.336;2022-12-13T03:32:30;100211.66;;;-3.15;47.50
63663;BME280;49815;51.618;0.336;2022-12-13T03:34:54;100210.48;;;-3.38;47.51
63663;BME280;49815;51.618;0.336;2022-12-13T03:37:19;100210.91;;;-3.70;47.31
63663;BME280;49815;51.618;0.336;2022-12-13T03:39:45;100212.31;;;-4.04;47.02
63663;BME280;49815;51.618;0.336;2022-12-13T03:42:11;100208.85;;;-3.37;47.28
63663;BME280;49815;51.618;0.336;2022-12-13T03:44:36;100208.64;;;-3.07;47.00
63663;BME280;49815;51.618;0.336;2022-12-13T03:47:02;100209.34;;;-3.37;46.80
63663;BME280;49815;51.618;0.336;2022-12-13T03:49:27;100210.83;;;-3.20;47.11
63663;BME280;49815;51.618;0.336;2022-12-13T03:51:52;100211.16;;;-3.33;46.48
63663;BME280;49815;51.618;0.336;2022-12-13T03:54:17;100210.63;;;-3.56;46.56
63663;BME280;49815;51.618;0.336;2022-12-13T03:56:44;100211.60;;;-3.73;46.87
63663;BME280;49815;51.618;0.336;2022-12-13T03:59:08;100213.77;;;-3.98;47.55
63663;BME280;49815;51.618;0.336;2022-12-13T04:01:34;100211.04;;;-3.23;47.82
63663;BME280;49815;51.618;0.336;2022-12-13T04:04:00;100209.38;;;-3.68;47.38
63663;BME280;49815;51.618;0.336;2022-12-13T04:06:25;100208.81;;;-3.62;47.23
63663;BME280;49815;51.618;0.336;2022-12-13T04:08:52;100207.83;;;-3.12;47.07
63663;BME280;49815;51.618;0.336;2022-12-13T04:11:16;100206.87;;;-3.58;47.07
63663;BME280;49815;51.618;0.336;2022-12-13T04:13:43;100203.58;;;-3.00;47.29
63663;BME280;49815;51.618;0.336;2022-12-13T04:16:08;100198.71;;;-3.51;46.56
63663;BME280;49815;51.618;0.336;2022-12-13T04:18:32;100195.96;;;-3.41;45.86
63663;BME280;49815;51.618;0.336;2022-12-13T04:21:01;100194.09;;;-2.97;46.84
63663;BME280;49815;51.618;0.336;2022-12-13T04:23:25;100185.74;;;-3.04;46.55
63663;BME280;49815;51.618;0.336;2022-12-13T04:25:49;100180.56;;;-3.35;46.45
63663;BME280;49815;51.618;0.336;2022-12-13T04:28:14;100180.87;;;-3.53;46.61
63663;BME280;49815;51.618;0.336;2022-12-13T04:30:39;100183.60;;;-3.26;47.09
63663;BME280;49815;51.618;0.336;2022-12-13T04:33:05;100183.74;;;-3.61;46.71
63663;BME280;49815;51.618;0.336;2022-12-13T04:35:31;100181.31;;;-3.31;47.06
63663;BME280;49815;51.618;0.336;2022-12-13T04:37:55;100178.34;;;-3.12;46.72
63663;BME280;49815;51.618;0.336;2022-12-13T04:40:22;100180.40;;;-3.64;46.53
63663;BME280;49815;51.618;0.336;2022-12-13T04:42:46;100174.40;;;-3.59;47.07
63663;BME280;49815;51.618;0.336;2022-12-13T04:45:15;100174.15;;;-3.09;47.02
63663;BME280;49815;51.618;0.336;2022-12-13T04:47:37;100178.32;;;-3.57;46.84
63663;BME280;49815;51.618;0.336;2022-12-13T04:50:03;100176.65;;;-3.89;46.48
63663;BME280;49815;51.618;0.336;2022-12-13T04:52:28;100172.04;;;-3.30;46.63
63663;BME280;49815;51.618;0.336;2022-12-13T04:54:53;100169.65;;;-3.22;46.72
63663;BME280;49815;51.618;0.336;2022-12-13T04:57:17;100166.49;;;-3.64;47.01
63663;BME280;49815;51.618;0.336;2022-12-13T04:59:45;100165.99;;;-3.45;46.40
63663;BME280;49815;51.618;0.336;2022-12-13T05:02:10;100172.86;;;-3.22;46.76
63663;BME280;49815;51.618;0.336;2022-12-13T05:04:35;100172.72;;;-3.37;46.75
63663;BME280;49815;51.618;0.336;2022-12-13T05:07:03;100172.46;;;-4.00;46.85
63663;BME280;49815;51.618;0.336;2022-12-13T05:09:26;100176.02;;;-3.25;47.12
63663;BME280;49815;51.618;0.336;2022-12-13T05:11:51;100172.79;;;-3.68;47.23
63663;BME280;49815;51.618;0.336;2022-12-13T05:14:16;100169.60;;;-3.74;47.05
63663;BME280;49815;51.618;0.336;2022-12-13T05:16:42;100163.81;;;-3.31;46.94
63663;BME280;49815;51.618;0.336;2022-12-13T05:19:07;100162.18;;;-3.59;46.81
63663;BME280;49815;51.618;0.336;2022-12-13T05:21:32;100161.04;;;-3.42;46.63
63663;BME280;49815;51.618;0.336;2022-12-13T05:23:59;100161.86;;;-3.23;46.96
63663;BME280;49815;51.618;0.336;2022-12-13T05:26:23;100160.05;;;-3.68;46.69
63663;BME280;49815;51.618;0.336;2022-12-13T05:28:49;100157.63;;;-3.57;46.68
63663;BME280;49815;51.618;0.336;2022-12-13T05:31:14;100155.10;;;-3.52;46.93
63663;BME280;49815;51.618;0.336;2022-12-13T05:33:40;100149.97;;;-3.34;47.14
63663;BME280;49815;51.618;0.336;2022-12-13T05:36:05;100151.36;;;-3.67;46.73
63663;BME280;49815;51.618;0.336;2022-12-13T05:38:30;100154.20;;;-3.51;47.02
63663;BME280;49815;51.618;0.336;2022-12-13T05:40:55;100153.30;;;-3.23;46.83
63663;BME280;49815;51.618;0.336;2022-12-13T05:43:21;100153.21;;;-2.94;47.10
63663;BME280;49815;51.618;0.336;2022-12-13T05:45:46;100157.59;;;-3.59;46.92
63663;BME280;49815;51.618;0.336;2022-12-13T05:48:12;100156.88;;;-3.09;46.73
63663;BME280;49815;51.618;0.336;2022-12-13T05:50:37;100159.22;;;-3.05;46.67
63663;BME280;49815;51.618;0.336;2022-12-13T05:53:03;100157.82;;;-3.14;46.76
63663;BME280;49815;51.618;0.336;2022-12-13T05:55:29;100155.56;;;-3.16;46.62
63663;BME280;49815;51.618;0.336;2022-12-13T05:57:55;100158.60;;;-3.03;47.00
63663;BME280;49815;51.618;0.336;2022-12-13T06:00:20;100162.19;;;-3.09;46.80
63663;BME280;49815;51.618;0.336;2022-12-13T06:02:45;100162.01;;;-2.91;46.97
63663;BME280;49815;51.618;0.336;2022-12-13T06:05:10;100160.84;;;-2.73;46.68
63663;BME280;49815;51.618;0.336;2022-12-13T06:07:35;100159.23;;;-2.94;46.54
63663;BME280;49815;51.618;0.336;2022-12-13T06:10:00;100157.76;;;-3.07;46.75
63663;BME280;49815;51.618;0.336;2022-12-13T06:12:25;100157.88;;;-3.10;46.81
63663;BME280;49815;51.618;0.336;2022-12-13T06:14:51;100161.30;;;-2.92;47.09
63663;BME280;49815;51.618;0.336;2022-12-13T06:17:16;100160.37;;;-3.08;47.19
63663;BME280;49815;51.618;0.336;2022-12-13T06:19:42;100158.26;;;-2.64;46.70
63663;BME280;49815;51.618;0.336;2022-12-13T06:22:08;100156.55;;;-2.97;47.06
63663;BME280;49815;51.618;0.336;2022-12-13T06:24:33;100158.91;;;-2.72;46.60
63663;BME280;49815;51.618;0.336;2022-12-13T06:26:59;100153.54;;;-2.64;47.12
63663;BME280;49815;51.618;0.336;2022-12-13T06:29:23;100155.58;;;-2.79;46.71
63663;BME280;49815;51.618;0.336;2022-12-13T06:31:53;100155.79;;;-2.57;47.02
63663;BME280;49815;51.618;0.336;2022-12-13T06:34:13;100153.62;;;-2.34;47.09
63663;BME280;49815;51.618;0.336;2022-12-13T06:36:39;100153.86;;;-2.37;47.04
63663;BME280;49815;51.618;0.336;2022-12-13T06:39:06;100151.30;;;-2.68;47.15
63663;BME280;49815;51.618;0.336;2022-12-13T06:41:30;100154.52;;;-2.85;46.95
63663;BME280;49815;51.618;0.336;2022-12-13T06:43:55;100161.22;;;-2.61;47.17
63663;BME280;49815;51.618;0.336;2022-12-13T06:46:20;100160.04;;;-2.74;47.05
63663;BME280;49815;51.618;0.336;2022-12-13T06:48:47;100160.15;;;-2.89;47.25
63663;BME280;49815;51.618;0.336;2022-12-13T06:51:11;100159.71;;;-2.27;46.97
63663;BME280;49815;51.618;0.336;2022-12-13T06:53:38;100158.88;;;-2.32;46.51
63663;BME280;49815;51.618;0.336;2022-12-13T06:56:06;100166.95;;;-2.18;46.52
63663;BME280;49815;51.618;0.336;2022-12-13T06:58:28;100174.76;;;-2.40;47.05
63663;BME280;49815;51.618;0.336;2022-12-13T07:01:02;100174.24;;;-2.41;46.80
63663;BME280;49815;51.618;0.336;2022-12-13T07:03:19;100176.88;;;-2.37;47.42
63663;BME280;49815;51.618;0.336;2022-12-13T07:05:45;100181.00;;;-2.45;47.10
63663;BME280;49815;51.618;0.336;2022-12-13T07:08:09;100186.48;;;-2.11;47.33
63663;BME280;49815;51.618;0.336;2022-12-13T07:10:36;100189.48;;;-2.43;47.34
63663;BME280;49815;51.618;0.336;2022-12-13T07:12:59;100187.72;;;-2.61;46.95
63663;BME280;49815;51.618;0.336;2022-12-13T07:15:25;100185.40;;;-2.43;47.48
63663;BME280;49815;51.618;0.336;2022-12-13T07:17:51;100181.92;;;-2.88;47.30
63663;BME280;49815;51.618;0.336;2022-12-13T07:20:17;100179.80;;;-2.37;46.97
63663;BME280;49815;51.618;0.336;2022-12-13T07:22:41;100175.64;;;-1.81;47.21
63663;BME280;49815;51.618;0.336;2022-12-13T07:25:07;100175.50;;;-2.53;47.10
63663;BME280;49815;51.618;0.336;2022-12-13T07:27:34;100181.92;;;-2.81;47.05
63663;BME280;49815;51.618;0.336;2022-12-13T07:29:59;100188.52;;;-2.84;47.44
63663;BME280;49815;51.618;0.336;2022-12-13T07:32:24;100195.81;;;-2.62;47.06
63663;BME280;49815;51.618;0.336;2022-12-13T07:34:48;100199.16;;;-3.03;46.96
63663;BME280;49815;51.618;0.336;2022-12-13T07:37:15;100198.92;;;-3.66;50.08
63663;BME280;49815;51.618;0.336;2022-12-13T07:39:40;100197.44;;;-3.33;49.44
63663;BME280;49815;51.618;0.336;2022-12-13T07:42:06;100196.90;;;-3.21;48.70
63663;BME280;49815;51.618;0.336;2022-12-13T07:44:32;100197.79;;;-3.10;48.38
63663;BME280;49815;51.618;0.336;2022-12-13T07:46:56;100199.46;;;-2.47;48.36
63663;BME280;49815;51.618;0.336;2022-12-13T07:49:21;100194.27;;;-3.07;48.06
63663;BME280;49815;51.618;0.336;2022-12-13T07:51:48;100191.62;;;-3.39;47.48
63663;BME280;49815;51.618;0.336;2022-12-13T07:54:14;100193.21;;;-2.68;47.31
63663;BME280;49815;51.618;0.336;2022-12-13T07:56:37;100189.28;;;-2.70;47.34
63663;BME280;49815;51.618;0.336;2022-12-13T07:59:03;100188.43;;;-2.56;47.61
63663;BME280;49815;51.618;0.336;2022-12-13T08:01:30;100192.43;;;-2.74;47.04
63663;BME280;49815;51.618;0.336;2022-12-13T08:03:55;100195.24;;;-2.73;47.49
63663;BME280;49815;51.618;0.336;2022-12-13T08:06:19;100195.33;;;-2.63;46.91
63663;BME280;49815;51.618;0.336;2022-12-13T08:08:45;100193.96;;;-2.66;47.03
63663;BME280;49815;51.618;0.336;2022-12-13T08:11:12;100195.70;;;-2.68;47.22
63663;BME280;49815;51.618;0.336;2022-12-13T08:13:36;100194.86;;;-2.55;47.34
63663;BME280;49815;51.618;0.336;2022-12-13T08:16:04;100198.44;;;-2.63;47.05
63663;BME280;49815;51.618;0.336;2022-12-13T08:18:28;100207.39;;;-2.20;47.06
63663;BME280;49815;51.618;0.336;2022-12-13T08:20:53;100211.37;;;-2.25;46.75
63663;BME280;49815;51.618;0.336;2022-12-13T08:23:18;100204.44;;;-2.21;46.79
63663;BME280;49815;51.618;0.336;2022-12-13T08:28:10;100191.89;;;-2.18;47.09
63663;BME280;49815;51.618;0.336;2022-12-13T08:30:35;100191.36;;;-2.14;46.95
63663;BME280;49815;51.618;0.336;2022-12-13T08:33:00;100189.36;;;-2.50;46.95
63663;BME280;49815;51.618;0.336;2022-12-13T08:35:28;100184.36;;;-1.88;47.21
63663;BME280;49815;51.618;0.336;2022-12-13T08:37:51;100182.50;;;-2.26;46.58
63663;BME280;49815;51.618;0.336;2022-12-13T08:40:16;100187.40;;;-1.87;46.63
63663;BME280;49815;51.618;0.336;2022-12-13T08:42:42;100193.04;;;-1.67;46.74
63663;BME280;49815;51.618;0.336;2022-12-13T08:45:10;100197.17;;;-1.65;47.06
63663;BME280;49815;51.618;0.336;2022-12-13T08:47:33;100194.21;;;-1.72;46.83
63663;BME280;49815;51.618;0.336;2022-12-13T08:49:58;100190.62;;;-1.65;46.95
63663;BME280;49815;51.618;0.336;2022-12-13T08:52:24;100191.37;;;-1.47;46.74
63663;BME280;49815;51.618;0.336;2022-12-13T08:54:49;100187.44;;;-1.23;45.75
63663;BME280;49815;51.618;0.336;2022-12-13T08:57:15;100189.31;;;-1.59;46.12
63663;BME280;49815;51.618;0.336;2022-12-13T08:59:39;100185.47;;;-1.30;46.35
63663;BME280;49815;51.618;0.336;2022-12-13T09:02:04;100183.00;;;-1.22;46.40
63663;BME280;49815;51.618;0.336;2022-12-13T09:04:30;100183.32;;;-1.77;45.97
63663;BME280;49815;51.618;0.336;2022-12-13T09:06:55;100180.56;;;-1.05;46.39
63663;BME280;49815;51.618;0.336;2022-12-13T09:09:22;100176.14;;;-1.26;46.46
63663;BME280;49815;51.618;0.336;2022-12-13T09:11:48;100172.59;;;-0.99;46.25
63663;BME280;49815;51.618;0.336;2022-12-13T09:14:14;100173.05;;;-1.01;45.96
63663;BME280;49815;51.618;0.336;2022-12-13T09:16:38;100176.99;;;-0.48;46.29
63663;BME280;49815;51.618;0.336;2022-12-13T09:19:04;100177.59;;;-0.81;46.10
63663;BME280;49815;51.618;0.336;2022-12-13T09:21:29;100178.16;;;-0.06;45.77
63663;BME280;49815;51.618;0.336;2022-12-13T09:23:56;100176.99;;;-0.27;45.70
63663;BME280;49815;51.618;0.336;2022-12-13T09:26:20;100173.29;;;-0.42;45.83
63663;BME280;49815;51.618;0.336;2022-12-13T09:28:44;100171.44;;;-0.23;45.38
63663;BME280;49815;51.618;0.336;2022-12-13T09:31:13;100171.07;;;-0.45;45.60
63663;BME280;49815;51.618;0.336;2022-12-13T09:33:36;100170.00;;;-0.49;45.54
63663;BME280;49815;51.618;0.336;2022-12-13T09:36:02;100163.53;;;-0.16;45.89
63663;BME280;49815;51.618;0.336;2022-12-13T09:38:26;100166.03;;;0.14;45.46
63663;BME280;49815;51.618;0.336;2022-12-13T09:40:53;100163.90;;;0.26;45.70
63663;BME280;49815;51.618;0.336;2022-12-13T09:43:21;100164.57;;;0.06;45.84
63663;BME280;49815;51.618;0.336;2022-12-13T09:45:44;100165.10;;;0.26;45.39
63663;BME280;49815;51.618;0.336;2022-12-13T09:48:09;100166.91;;;0.52;45.49
63663;BME280;49815;51.618;0.336;2022-12-13T09:50:36;100163.95;;;0.67;45.45
63663;BME280;49815;51.618;0.336;2022-12-13T09:53:02;100162.42;;;0.54;45.62
63663;BME280;49815;51.618;0.336;2022-12-13T09:55:30;100157.51;;;0.64;45.56
63663;BME280;49815;51.618;0.336;2022-12-13T09:57:51;100153.86;;;0.53;45.23
63663;BME280;49815;51.618;0.336;2022-12-13T10:00:19;100155.14;;;0.75;45.46
63663;BME280;49815;51.618;0.336;2022-12-13T10:02:44;100157.76;;;0.85;45.22
63663;BME280;49815;51.618;0.336;2022-12-13T10:05:14;100158.22;;;1.06;44.82
63663;BME280;49815;51.618;0.336;2022-12-13T10:07:33;100158.92;;;0.83;45.10
63663;BME280;49815;51.618;0.336;2022-12-13T10:10:01;100154.33;;;1.69;44.60
63663;BME280;49815;51.618;0.336;2022-12-13T10:12:24;100152.14;;;1.46;44.66
63663;BME280;49815;51.618;0.336;2022-12-13T10:14:53;100148.94;;;1.50;44.13
63663;BME280;49815;51.618;0.336;2022-12-13T10:17:18;100143.90;;;1.48;44.34
63663;BME280;49815;51.618;0.336;2022-12-13T10:19:42;100136.35;;;1.63;44.12
63663;BME280;49815;51.618;0.336;2022-12-13T10:22:07;100131.77;;;1.42;44.08
63663;BME280;49815;51.618;0.336;2022-12-13T10:26:56;100119.25;;;1.95;44.15
63663;BME280;49815;51.618;0.336;2022-12-13T10:29:21;100118.69;;;1.81;43.47
63663;BME280;49815;51.618;0.336;2022-12-13T10:31:49;100120.51;;;1.91;43.47
63663;BME280;49815;51.618;0.336;2022-12-13T10:34:19;100116.74;;;2.42;43.36
63663;BME280;49815;51.618;0.336;2022-12-13T10:36:36;100119.02;;;1.56;43.44
63663;BME280;49815;51.618;0.336;2022-12-13T10:39:03;100114.80;;;2.16;43.46
63663;BME280;49815;51.618;0.336;2022-12-13T10:41:32;100110.75;;;2.54;43.75
63663;BME280;49815;51.618;0.336;2022-12-13T10:46:20;100100.71;;;1.81;43.59
63663;BME280;49815;51.618;0.336;2022-12-13T10:48:48;100091.54;;;2.19;43.31
63663;BME280;49815;51.618;0.336;2022-12-13T10:51:11;100085.22;;;2.24;44.05
63663;BME280;49815;51.618;0.336;2022-12-13T10:53:40;100081.54;;;2.69;43.34
63663;BME280;49815;51.618;0.336;2022-12-13T10:56:02;100074.73;;;2.60;43.37
63663;BME280;49815;51.618;0.336;2022-12-13T10:58:34;100072.68;;;2.85;43.51
63663;BME280;49815;51.618;0.336;2022-12-13T11:00:52;100065.47;;;2.94;42.53
63663;BME280;49815;51.618;0.336;2022-12-13T11:03:28;100062.72;;;3.20;41.98
63663;BME280;49815;51.618;0.336;2022-12-13T11:05:42;100058.14;;;3.40;42.49
63663;BME280;49815;51.618;0.336;2022-12-13T11:08:15;100057.86;;;3.22;42.57
63663;BME280;49815;51.618;0.336;2022-12-13T11:10:33;100058.54;;;3.22;41.91
63663;BME280;49815;51.618;0.336;2022-12-13T11:13:01;100057.65;;;3.36;40.34
63663;BME280;49815;51.618;0.336;2022-12-13T11:15:25;100051.82;;;3.26;41.73
63663;BME280;49815;51.618;0.336;2022-12-13T11:17:51;100051.48;;;3.30;42.05
63663;BME280;49815;51.618;0.336;2022-12-13T11:20:21;100051.76;;;3.26;42.03
63663;BME280;49815;51.618;0.336;2022-12-13T11:22:42;100052.32;;;3.47;41.52
63663;BME280;49815;51.618;0.336;2022-12-13T11:25:08;100049.68;;;3.36;42.22
63663;BME280;49815;51.618;0.336;2022-12-13T11:30:10;100040.58;;;3.56;42.05
63663;BME280;49815;51.618;0.336;2022-12-13T11:32:30;100037.09;;;3.39;42.68
63663;BME280;49815;51.618;0.336;2022-12-13T11:34:53;100033.91;;;3.53;42.52
63663;BME280;49815;51.618;0.336;2022-12-13T11:37:19;100025.92;;;3.60;42.50
63663;BME280;49815;51.618;0.336;2022-12-13T11:39:40;100018.53;;;3.83;42.78
63663;BME280;49815;51.618;0.336;2022-12-13T11:42:12;100016.63;;;3.59;42.36
63663;BME280;49815;51.618;0.336;2022-12-13T11:44:37;100017.08;;;3.60;43.20
63663;BME280;49815;51.618;0.336;2022-12-13T11:46:55;100019.96;;;3.81;42.39
63663;BME280;49815;51.618;0.336;2022-12-13T11:49:26;100015.67;;;3.95;42.36
63663;BME280;49815;51.618;0.336;2022-12-13T11:51:51;100014.59;;;4.12;42.45
63663;BME280;49815;51.618;0.336;2022-12-13T11:54:16;100004.62;;;4.04;42.58
63663;BME280;49815;51.618;0.336;2022-12-13T11:56:39;100002.17;;;3.74;42.75
63663;BME280;49815;51.618;0.336;2022-12-13T11:59:07;100000.34;;;3.61;43.07
63663;BME280;49815;51.618;0.336;2022-12-13T12:01:33;100000.57;;;4.30;42.78
63663;BME280;49815;51.618;0.336;2022-12-13T12:03:56;99999.16;;;4.29;42.74
63663;BME280;49815;51.618;0.336;2022-12-13T12:06:22;100000.69;;;4.11;41.95
63663;BME280;49815;51.618;0.336;2022-12-13T12:08:45;99999.97;;;4.51;41.86
63663;BME280;49815;51.618;0.336;2022-12-13T12:11:13;99996.12;;;4.36;42.51
63663;BME280;49815;51.618;0.336;2022-12-13T12:13:36;99992.30;;;4.60;42.42
63663;BME280;49815;51.618;0.336;2022-12-13T12:16:07;99987.24;;;4.65;42.76
63663;BME280;49815;51.618;0.336;2022-12-13T12:18:23;99984.12;;;4.29;42.16
63663;BME280;49815;51.618;0.336;2022-12-13T12:20:59;99977.50;;;4.44;42.08
63663;BME280;49815;51.618;0.336;2022-12-13T12:23:23;99974.64;;;4.81;41.62
63663;BME280;49815;51.618;0.336;2022-12-13T12:25:45;99968.65;;;4.88;42.06
63663;BME280;49815;51.618;0.336;2022-12-13T12:28:13;99965.71;;;4.96;42.18
63663;BME280;49815;51.618;0.336;2022-12-13T12:30:40;99957.13;;;4.33;40.29
63663;BME280;49815;51.618;0.336;2022-12-13T12:33:05;99952.87;;;4.59;41.32
63663;BME280;49815;51.618;0.336;2022-12-13T12:35:35;99949.94;;;4.54;42.12
63663;BME280;49815;51.618;0.336;2022-12-13T12:37:55;99951.69;;;3.73;41.48
63663;BME280;49815;51.618;0.336;2022-12-13T12:42:47;99947.20;;;4.48;42.28
63663;BME280;49815;51.618;0.336;2022-12-13T12:45:15;99950.93;;;2.73;43.91
63663;BME280;49815;51.618;0.336;2022-12-13T12:47:37;99948.28;;;2.03;46.08
63663;BME280;49815;51.618;0.336;2022-12-13T12:52:26;99946.10;;;2.18;47.04
63663;BME280;49815;51.618;0.336;2022-12-13T12:54:51;99942.21;;;1.73;47.38
63663;BME280;49815;51.618;0.336;2022-12-13T12:57:16;99937.61;;;1.67;47.69
63663;BME280;49815;51.618;0.336;2022-12-13T12:59:43;99937.65;;;0.35;49.19